Time;durP1;ratioP1;P1;durP2;ratioP2;P2;SDS_P1;SDS_P2;PMS_P1;PMS_P2;Temp;Humidity;BMP_temperature;BMP_pressure;BME280_temperature;BME280_humidity;BME280_pressure;Samples;Min_cycle;Max_cycle;Signal;HPM_P1;HPM_P2
2023/08/21 00:01:21;;;;;;;7.32;1.65;;;17.60;99.90;;;;;;5076121;28;20558;-72
2023/08/21 00:03:47;;;;;;;5.40;1.33;;;17.60;99.90;;;;;;5077236;28;20040;-73
2023/08/21 00:06:13;;;;;;;3.30;1.30;;;17.60;99.90;;;;;;5075660;28;20144;-72
2023/08/21 00:08:38;;;;;;;3.10;1.23;;;17.60;99.90;;;;;;5077610;28;20059;-73
2023/08/21 00:11:04;;;;;;;9.43;1.70;;;17.60;99.90;;;;;;5076946;28;20076;-73
2023/08/21 00:13:30;;;;;;;3.78;1.60;;;17.60;99.90;;;;;;5078382;28;20156;-73
2023/08/21 00:15:56;;;;;;;7.00;1.83;;;17.50;99.90;;;;;;5076509;28;20071;-73
2023/08/21 00:18:22;;;;;;;4.90;1.75;;;17.50;99.90;;;;;;5077480;28;20072;-73
2023/08/21 00:20:48;;;;;;;4.88;1.73;;;17.40;99.90;;;;;;5078490;28;20460;-73
2023/08/21 00:23:13;;;;;;;7.05;2.20;;;17.40;99.90;;;;;;5074367;28;20419;-72
2023/08/21 00:25:39;;;;;;;4.47;1.90;;;17.60;99.90;;;;;;5075444;28;20446;-73
2023/08/21 00:28:05;;;;;;;4.60;1.90;;;17.70;99.90;;;;;;5075236;28;20060;-73
2023/08/21 00:30:31;;;;;;;4.82;1.63;;;17.60;99.90;;;;;;5060331;28;20041;-73
2023/08/21 00:32:57;;;;;;;4.13;1.75;;;17.50;99.90;;;;;;5075781;28;20063;-73
2023/08/21 00:35:22;;;;;;;6.53;2.00;;;17.40;99.90;;;;;;5076084;28;20063;-73
2023/08/21 00:37:48;;;;;;;5.60;1.80;;;17.40;99.90;;;;;;5077782;28;20052;-73
2023/08/21 00:40:14;;;;;;;6.82;2.00;;;17.40;99.90;;;;;;5076575;28;20033;-73
2023/08/21 00:42:40;;;;;;;8.15;2.00;;;17.30;99.90;;;;;;5077953;28;20543;-74
2023/08/21 00:45:08;;;;;;;5.03;1.70;;;17.30;99.90;;;;;;5076144;28;20056;-73
2023/08/21 00:47:37;;;;;;;3.83;2.00;;;17.30;99.90;;;;;;5078181;28;20043;-74
2023/08/21 00:50:05;;;;;;;3.90;1.88;;;17.30;99.90;;;;;;5075797;28;20076;-73
2023/08/21 00:52:31;;;;;;;3.50;1.80;;;17.30;99.90;;;;;;5075347;28;20053;-72
2023/08/21 00:54:57;;;;;;;4.65;2.15;;;17.30;99.90;;;;;;5077046;28;20104;-72
2023/08/21 00:57:23;;;;;;;3.47;1.92;;;17.20;99.90;;;;;;5041628;28;20053;-72
2023/08/21 00:59:50;;;;;;;6.00;1.90;;;17.00;99.90;;;;;;5075555;28;20182;-73
2023/08/21 01:02:16;;;;;;;4.85;1.83;;;16.90;99.90;;;;;;5074720;28;20420;-74
2023/08/21 01:04:42;;;;;;;4.90;2.00;;;16.90;99.90;;;;;;5077746;28;20055;-73
2023/08/21 01:07:09;;;;;;;4.28;2.10;;;17.00;99.90;;;;;;5076579;28;20051;-73
2023/08/21 01:09:44;;;;;;;3.35;1.75;;;16.90;99.90;;;;;;5074918;28;20045;-72
2023/08/21 01:12:19;;;;;;;5.60;2.00;;;16.90;99.90;;;;;;5076958;28;20430;-72
2023/08/21 01:14:59;;;;;;;2.58;1.40;;;16.90;99.90;;;;;;5075864;28;20055;-74
2023/08/21 01:17:26;;;;;;;2.88;1.50;;;16.90;99.90;;;;;;5077733;28;20078;-73
2023/08/21 01:19:53;;;;;;;3.58;1.98;;;16.90;99.90;;;;;;5076098;28;20044;-73
2023/08/21 01:22:19;;;;;;;3.63;1.80;;;16.90;99.90;;;;;;5076779;28;20044;-72
2023/08/21 01:24:44;;;;;;;3.63;1.52;;;16.90;99.90;;;;;;5075266;28;20054;-75
2023/08/21 01:27:12;;;;;;;6.85;1.60;;;16.90;99.90;;;;;;5074122;28;20844;-73
2023/08/21 01:29:38;;;;;;;2.15;1.50;;;16.80;99.90;;;;;;5075739;28;20040;-73
2023/08/21 01:32:17;;;;;;;5.30;1.60;;;16.80;99.90;;;;;;5075767;28;20045;-73
2023/08/21 01:34:43;;;;;;;4.85;1.90;;;16.80;99.90;;;;;;5075758;28;20458;-72
2023/08/21 01:37:11;;;;;;;6.53;2.10;;;16.80;99.90;;;;;;5058378;28;20085;-72
2023/08/21 01:39:37;;;;;;;4.28;1.63;;;16.80;99.90;;;;;;5074667;28;20063;-73
2023/08/21 01:42:02;;;;;;;2.85;1.58;;;16.80;99.90;;;;;;5075515;28;20487;-72
2023/08/21 01:44:28;;;;;;;4.30;1.90;;;16.70;99.90;;;;;;5074363;28;20505;-72
2023/08/21 01:46:54;;;;;;;5.40;2.33;;;16.70;99.90;;;;;;5076952;28;20047;-72
2023/08/21 01:49:20;;;;;;;3.70;1.98;;;16.70;99.90;;;;;;5073938;28;20048;-73
2023/08/21 01:51:46;;;;;;;8.07;1.88;;;16.70;99.90;;;;;;5075978;28;20052;-73
2023/08/21 01:54:12;;;;;;;3.08;1.50;;;16.70;99.90;;;;;;5075933;28;20041;-72
2023/08/21 01:56:38;;;;;;;4.72;1.80;;;16.70;99.90;;;;;;5058397;28;20055;-73
2023/08/21 01:59:04;;;;;;;6.55;2.20;;;16.70;99.90;;;;;;5076843;28;20113;-72
2023/08/21 02:01:30;;;;;;;4.93;1.98;;;16.70;99.90;;;;;;5074158;28;20048;-74
2023/08/21 02:03:56;;;;;;;3.15;1.95;;;16.70;99.90;;;;;;5076806;28;20045;-73
2023/08/21 02:06:22;;;;;;;5.03;2.00;;;16.60;99.90;;;;;;5057365;28;20048;-72
2023/08/21 02:08:49;;;;;;;6.38;1.85;;;16.60;99.90;;;;;;5075827;28;20044;-73
2023/08/21 02:11:15;;;;;;;3.55;1.95;;;16.60;99.90;;;;;;5078336;28;20097;-72
2023/08/21 02:13:41;;;;;;;3.65;1.52;;;16.60;99.90;;;;;;5080817;28;20106;-73
2023/08/21 02:16:07;;;;;;;3.97;1.70;;;16.60;99.90;;;;;;5080843;28;20100;-74
2023/08/21 02:18:32;;;;;;;6.57;2.47;;;16.60;99.90;;;;;;5078242;28;20094;-72
2023/08/21 02:21:01;;;;;;;3.10;1.77;;;16.50;99.90;;;;;;5081008;28;20040;-72
2023/08/21 02:23:27;;;;;;;3.72;1.85;;;16.50;99.90;;;;;;5078080;28;20143;-71
2023/08/21 02:25:53;;;;;;;2.92;1.75;;;16.40;99.90;;;;;;5079302;28;20044;-72
2023/08/21 02:28:19;;;;;;;4.43;1.88;;;16.40;99.90;;;;;;5079678;28;20028;-72
2023/08/21 02:30:45;;;;;;;2.72;1.63;;;16.40;99.90;;;;;;5080499;28;20053;-72
2023/08/21 02:33:11;;;;;;;2.58;1.92;;;16.40;99.90;;;;;;5080423;28;20048;-71
2023/08/21 02:35:37;;;;;;;1.60;1.50;;;16.40;99.90;;;;;;5079310;28;20069;-70
2023/08/21 02:38:02;;;;;;;5.05;1.80;;;16.40;99.90;;;;;;5080312;28;20055;-71
2023/08/21 02:40:28;;;;;;;2.25;1.50;;;16.40;99.90;;;;;;5078970;28;20075;-71
2023/08/21 02:42:54;;;;;;;5.55;1.80;;;16.30;99.90;;;;;;5079318;28;20060;-72
2023/08/21 02:45:20;;;;;;;5.35;1.80;;;16.30;99.90;;;;;;5060911;28;20077;-73
2023/08/21 02:47:46;;;;;;;5.30;2.10;;;16.30;99.90;;;;;;5079286;28;20055;-72
2023/08/21 02:50:12;;;;;;;5.45;2.03;;;16.30;99.90;;;;;;5079889;28;20041;-71
2023/08/21 02:52:38;;;;;;;1.92;1.58;;;16.30;99.90;;;;;;5077550;28;20120;-72
2023/08/21 02:55:05;;;;;;;3.35;1.52;;;16.30;99.90;;;;;;5078728;28;20555;-71
2023/08/21 02:57:30;;;;;;;3.58;1.92;;;16.20;99.90;;;;;;5078521;28;20049;-71
2023/08/21 02:59:56;;;;;;;3.67;1.85;;;16.10;99.90;;;;;;5078850;28;20045;-72
2023/08/21 03:02:22;;;;;;;4.13;1.65;;;16.00;99.90;;;;;;5077325;28;20040;-70
2023/08/21 03:04:49;;;;;;;2.88;1.67;;;16.00;99.90;;;;;;5078864;28;20123;-71
2023/08/21 03:07:15;;;;;;;5.00;1.92;;;16.10;99.90;;;;;;5078243;28;20100;-72
2023/08/21 03:09:41;;;;;;;4.32;1.95;;;16.10;99.90;;;;;;5077183;28;20178;-71
2023/08/21 03:12:08;;;;;;;1.98;1.70;;;16.10;99.90;;;;;;5077950;28;20064;-71
2023/08/21 03:14:34;;;;;;;4.60;1.90;;;16.10;99.90;;;;;;5076838;28;20096;-71
2023/08/21 03:17:00;;;;;;;2.47;1.42;;;16.10;99.90;;;;;;5078342;28;20088;-72
2023/08/21 03:19:26;;;;;;;2.45;2.10;;;16.00;99.90;;;;;;5078381;28;20162;-72
2023/08/21 03:21:51;;;;;;;3.33;1.95;;;16.00;99.90;;;;;;5044069;28;20040;-72
2023/08/21 03:24:17;;;;;;;7.68;1.98;;;16.00;99.90;;;;;;5078782;28;20048;-72
2023/08/21 03:26:43;;;;;;;6.22;1.58;;;16.00;99.90;;;;;;5076897;28;20075;-72
2023/08/21 03:29:09;;;;;;;1.75;1.60;;;15.90;99.90;;;;;;5079523;28;20043;-72
2023/08/21 03:31:35;;;;;;;2.92;1.70;;;15.70;99.90;;;;;;5060215;28;20083;-71
2023/08/21 03:34:01;;;;;;;3.70;2.17;;;15.80;99.90;;;;;;5079669;28;20141;-71
2023/08/21 03:36:33;;;;;;;3.30;2.40;;;15.70;99.90;;;;;;5076436;28;20056;-71
2023/08/21 03:39:02;;;;;;;2.60;1.92;;;15.80;99.90;;;;;;5079717;28;20206;-72
2023/08/21 03:41:27;;;;;;;4.20;2.20;;;15.80;99.90;;;;;;5077533;28;20040;-72
2023/08/21 03:43:53;;;;;;;4.15;2.00;;;15.70;99.90;;;;;;5076930;28;20091;-71
2023/08/21 03:46:19;;;;;;;1.80;1.65;;;15.70;99.90;;;;;;5079316;28;20036;-71
2023/08/21 03:48:45;;;;;;;5.30;2.15;;;15.70;99.90;;;;;;5077860;28;20049;-70
2023/08/21 03:51:11;;;;;;;4.50;1.85;;;15.70;99.90;;;;;;5079356;28;20107;-72
2023/08/21 03:53:36;;;;;;;;;;;15.70;99.90;;;;;;5076886;28;20036;-72
2023/08/21 03:56:02;;;;;;;5.18;1.92;;;15.60;99.90;;;;;;5061439;28;19959;-72
2023/08/21 03:58:28;;;;;;;4.70;1.98;;;15.70;99.90;;;;;;5078303;28;20076;-72
2023/08/21 04:00:54;;;;;;;3.75;1.88;;;15.60;99.90;;;;;;5078511;28;20071;-71
2023/08/21 04:03:20;;;;;;;2.00;1.50;;;15.60;99.90;;;;;;5078783;28;20044;-72
2023/08/21 04:05:47;;;;;;;2.92;1.70;;;15.70;99.90;;;;;;5059470;28;20110;-71
2023/08/21 04:08:12;;;;;;;4.47;1.80;;;15.60;99.90;;;;;;5077687;28;20040;-72
2023/08/21 04:10:39;;;;;;;3.63;1.98;;;15.60;99.90;;;;;;5077522;28;20162;-71
2023/08/21 04:13:05;;;;;;;6.40;2.13;;;15.50;99.90;;;;;;5078878;28;20119;-72
2023/08/21 04:15:31;;;;;;;6.25;2.05;;;15.50;99.90;;;;;;5076463;28;20127;-70
2023/08/21 04:17:57;;;;;;;4.70;2.08;;;15.50;99.90;;;;;;5077999;28;20048;-72
2023/08/21 04:20:23;;;;;;;3.72;1.70;;;15.50;99.90;;;;;;5078667;28;20116;-71
2023/08/21 04:22:49;;;;;;;5.78;1.85;;;15.50;99.90;;;;;;5077118;28;20064;-72
2023/08/21 04:25:15;;;;;;;5.50;1.88;;;15.50;99.90;;;;;;5077975;28;20044;-72
2023/08/21 04:27:42;;;;;;;2.60;1.85;;;15.50;99.90;;;;;;5075577;28;20100;-72
2023/08/21 04:30:09;;;;;;;3.28;2.13;;;15.60;99.90;;;;;;5078566;28;20070;-72
2023/08/21 04:32:35;;;;;;;2.05;1.88;;;15.60;99.90;;;;;;5075451;28;20041;-72
2023/08/21 04:35:01;;;;;;;3.95;1.83;;;15.60;99.90;;;;;;5059671;28;20062;-72
2023/08/21 04:37:27;;;;;;;3.03;1.85;;;15.50;99.90;;;;;;5078123;28;20088;-72
2023/08/21 04:39:56;;;;;;;6.70;1.90;;;15.50;99.90;;;;;;5076487;28;20051;-72
2023/08/21 04:42:22;;;;;;;3.75;2.38;;;15.40;99.90;;;;;;5076633;28;20049;-70
2023/08/21 04:44:48;;;;;;;3.85;1.70;;;15.40;99.90;;;;;;5074794;28;20507;-73
2023/08/21 04:47:26;;;;;;;6.22;1.77;;;15.30;99.90;;;;;;5077999;28;20157;-71
2023/08/21 04:49:52;;;;;;;2.10;1.60;;;15.50;99.90;;;;;;5075487;28;20497;-72
2023/08/21 04:52:19;;;;;;;5.10;1.60;;;15.50;99.90;;;;;;5077085;28;20044;-71
2023/08/21 04:54:45;;;;;;;4.00;1.98;;;15.40;99.90;;;;;;5077595;28;20120;-73
2023/08/21 04:57:11;;;;;;;2.78;1.65;;;15.40;99.90;;;;;;5058465;28;20055;-72
2023/08/21 04:59:37;;;;;;;3.15;1.52;;;15.40;99.90;;;;;;5077569;28;20040;-72
2023/08/21 05:02:03;;;;;;;4.55;2.08;;;15.40;99.90;;;;;;5074334;28;20080;-71
2023/08/21 05:04:29;;;;;;;3.10;1.70;;;15.30;99.90;;;;;;5076372;28;20105;-70
2023/08/21 05:06:55;;;;;;;3.85;2.00;;;15.40;99.90;;;;;;5074864;28;20056;-72
2023/08/21 05:09:20;;;;;;;3.33;1.63;;;15.40;99.90;;;;;;5075494;28;20029;-72
2023/08/21 05:11:46;;;;;;;3.00;2.30;;;15.50;99.90;;;;;;5075635;28;20112;-73
2023/08/21 05:14:12;;;;;;;2.38;1.88;;;15.50;99.90;;;;;;5075916;28;20048;-72
2023/08/21 05:16:37;;;;;;;3.95;1.52;;;15.50;99.90;;;;;;5077156;28;20044;-71
2023/08/21 05:19:03;;;;;;;4.90;1.70;;;15.60;99.90;;;;;;5075722;28;20052;-71
2023/08/21 05:21:29;;;;;;;3.20;1.85;;;15.70;99.90;;;;;;5077604;28;20049;-72
2023/08/21 05:23:55;;;;;;;4.20;1.60;;;15.70;99.90;;;;;;5076133;28;20111;-72
2023/08/21 05:26:21;;;;;;;3.80;1.90;;;15.90;99.90;;;;;;5075393;28;20080;-72
2023/08/21 05:28:46;;;;;;;5.50;2.00;;;16.00;99.90;;;;;;5077037;28;20059;-72
2023/08/21 05:31:12;;;;;;;4.18;1.60;;;16.20;99.90;;;;;;5074213;28;20052;-72
2023/08/21 05:33:38;;;;;;;3.58;1.75;;;16.10;99.90;;;;;;5075712;28;20376;-71
2023/08/21 05:36:05;;;;;;;2.40;1.42;;;16.20;99.90;;;;;;5075764;28;20044;-71
2023/08/21 05:38:31;;;;;;;5.82;1.60;;;16.30;99.90;;;;;;5075884;28;20071;-71
2023/08/21 05:40:58;;;;;;;4.75;1.50;;;16.50;99.90;;;;;;5075907;28;20045;-70
2023/08/21 05:43:24;;;;;;;2.88;1.40;;;16.50;99.90;;;;;;5077106;28;20068;-69
2023/08/21 05:45:50;;;;;;;3.58;1.60;;;16.60;99.90;;;;;;5057756;28;20058;-70
2023/08/21 05:48:16;;;;;;;3.80;1.55;;;16.70;99.90;;;;;;5074498;28;20305;-70
2023/08/21 05:50:42;;;;;;;2.47;1.73;;;16.80;99.90;;;;;;5076883;28;20110;-70
2023/08/21 05:53:08;;;;;;;2.92;2.03;;;17.00;99.90;;;;;;5073991;28;20041;-69
2023/08/21 05:55:37;;;;;;;3.53;1.80;;;17.00;99.90;;;;;;5075292;28;20056;-69
2023/08/21 05:58:03;;;;;;;3.20;1.95;;;17.10;99.90;;;;;;5075583;28;20037;-70
2023/08/21 06:00:29;;;;;;;4.80;2.58;;;17.10;99.90;;;;;;5078953;28;20101;-72
2023/08/21 06:02:54;;;;;;;5.93;2.75;;;17.10;99.90;;;;;;5076169;28;20072;-72
2023/08/21 06:05:20;;;;;;;3.67;2.03;;;17.20;99.90;;;;;;5073371;28;20059;-73
2023/08/21 06:07:46;;;;;;;5.38;2.28;;;17.30;99.90;;;;;;5076262;28;20100;-73
2023/08/21 06:10:12;;;;;;;6.32;2.28;;;17.50;99.90;;;;;;5075044;28;20053;-72
2023/08/21 06:12:41;;;;;;;3.42;2.30;;;17.60;99.90;;;;;;5076622;28;20061;-72
2023/08/21 06:15:08;;;;;;;10.30;2.85;;;17.70;99.90;;;;;;5073683;28;20126;-72
2023/08/21 06:17:34;;;;;;;6.47;2.70;;;17.80;99.90;;;;;;5076703;28;20128;-71
2023/08/21 06:20:00;;;;;;;7.47;2.97;;;17.80;99.90;;;;;;5074621;28;20542;-73
2023/08/21 06:22:26;;;;;;;5.88;2.40;;;17.90;99.90;;;;;;5074370;28;20037;-72
2023/08/21 06:24:52;;;;;;;7.82;2.45;;;18.00;99.90;;;;;;5076394;28;20049;-74
2023/08/21 06:27:17;;;;;;;5.95;2.58;;;18.10;99.90;;;;;;5073860;28;20044;-71
2023/08/21 06:29:43;;;;;;;5.93;2.40;;;18.20;99.90;;;;;;5075150;28;20079;-71
2023/08/21 06:32:09;;;;;;;7.28;2.92;;;18.40;99.90;;;;;;5061763;28;20110;-71
2023/08/21 06:34:35;;;;;;;6.97;2.38;;;18.50;99.90;;;;;;5056888;28;20496;-73
2023/08/21 06:37:00;;;;;;;10.93;2.90;;;18.50;99.90;;;;;;5055499;28;20049;-73
2023/08/21 06:39:26;;;;;;;7.28;2.60;;;18.50;99.90;;;;;;5054335;28;20053;-72
2023/08/21 06:41:53;;;;;;;6.45;3.00;;;18.40;99.90;;;;;;5054923;28;20065;-71
2023/08/21 06:44:18;;;;;;;6.75;2.53;;;18.40;99.90;;;;;;5054829;28;20060;-69
2023/08/21 06:46:44;;;;;;;6.97;2.97;;;18.50;99.90;;;;;;5056429;28;20049;-72
2023/08/21 06:49:10;;;;;;;10.68;3.03;;;18.60;99.90;;;;;;5054856;28;20390;-72
2023/08/21 06:51:35;;;;;;;7.72;2.47;;;18.80;99.90;;;;;;5055170;28;20045;-71
2023/08/21 06:54:01;;;;;;;5.15;2.33;;;18.80;99.90;;;;;;5053838;28;20079;-72
2023/08/21 06:56:27;;;;;;;9.43;2.38;;;18.80;99.90;;;;;;5056003;28;20116;-71
2023/08/21 06:58:54;;;;;;;7.18;2.78;;;18.80;99.90;;;;;;5065223;28;20086;-71
2023/08/21 07:01:21;;;;;;;8.70;2.70;;;18.80;99.90;;;;;;5063679;28;20053;-72
2023/08/21 07:03:47;;;;;;;7.97;2.83;;;18.90;99.90;;;;;;5041719;28;20132;-71
2023/08/21 07:06:13;;;;;;;6.45;2.30;;;18.90;99.90;;;;;;5057231;28;20084;-70
2023/08/21 07:08:40;;;;;;;7.10;2.50;;;19.00;99.90;;;;;;5060146;28;20048;-69
2023/08/21 07:11:10;;;;;;;8.15;2.70;;;19.10;99.90;;;;;;5058629;28;20076;-71
2023/08/21 07:13:36;;;;;;;9.82;2.95;;;19.10;99.90;;;;;;5061867;28;20080;-70
2023/08/21 07:16:02;;;;;;;10.43;2.70;;;19.10;99.90;;;;;;5073762;28;20051;-69
2023/08/21 07:18:33;;;;;;;6.82;2.75;;;19.20;99.90;;;;;;5071906;28;20598;-70
2023/08/21 07:20:59;;;;;;;12.63;2.95;;;19.30;99.90;;;;;;5076839;28;20037;-68
2023/08/21 07:23:25;;;;;;;7.55;2.85;;;19.20;99.90;;;;;;5060097;28;20136;-68
2023/08/21 07:25:51;;;;;;;10.23;3.13;;;19.30;99.90;;;;;;5078299;28;20048;-70
2023/08/21 07:28:17;;;;;;;6.43;2.58;;;19.50;99.90;;;;;;5078526;28;20047;-70
2023/08/21 07:30:43;;;;;;;5.13;1.90;;;19.50;99.90;;;;;;5077997;28;20076;-70
2023/08/21 07:33:09;;;;;;;5.50;2.17;;;19.60;99.90;;;;;;5078261;28;20048;-70
2023/08/21 07:35:35;;;;;;;8.57;2.20;;;19.60;99.90;;;;;;5078263;28;20052;-69
2023/08/21 07:38:02;;;;;;;7.00;2.40;;;19.70;99.90;;;;;;5078193;28;20051;-71
2023/08/21 07:40:27;;;;;;;7.53;2.33;;;19.80;99.90;;;;;;5078237;28;20108;-70
2023/08/21 07:42:53;;;;;;;4.88;1.80;;;19.80;99.90;;;;;;5079642;28;20427;-70
2023/08/21 07:45:19;;;;;;;8.00;1.90;;;19.80;99.90;;;;;;5078205;28;20044;-71
2023/08/21 07:47:45;;;;;;;5.40;1.95;;;19.90;99.90;;;;;;5077736;28;20040;-71
2023/08/21 07:50:11;;;;;;;5.15;1.20;;;20.00;99.90;;;;;;5077671;28;20076;-71
2023/08/21 07:52:36;;;;;;;6.95;1.30;;;20.00;99.90;;;;;;5077969;28;20100;-69
2023/08/21 07:55:03;;;;;;;5.88;1.63;;;20.10;99.90;;;;;;5078990;28;20041;-70
2023/08/21 07:57:29;;;;;;;5.10;1.15;;;20.20;99.90;;;;;;5077417;28;20036;-70
2023/08/21 07:59:55;;;;;;;6.28;1.50;;;20.20;99.90;;;;;;5079075;28;20052;-72
2023/08/21 08:02:21;;;;;;;6.15;1.80;;;20.30;99.90;;;;;;5077571;28;20044;-70
2023/08/21 08:04:47;;;;;;;7.18;2.50;;;20.30;99.90;;;;;;5077352;28;20052;-71
2023/08/21 08:07:13;;;;;;;4.40;1.50;;;20.50;99.90;;;;;;5078227;28;20522;-69
2023/08/21 08:09:39;;;;;;;7.18;1.70;;;20.60;99.90;;;;;;5059226;28;20036;-70
2023/08/21 08:12:06;;;;;;;5.43;2.28;;;20.70;99.90;;;;;;5083069;28;20063;-71
2023/08/21 08:14:32;;;;;;;5.93;1.45;;;20.80;99.90;;;;;;5082967;28;20110;-71
2023/08/21 08:16:57;;;;;;;7.60;2.00;;;20.80;99.90;;;;;;5077398;28;20123;-70
2023/08/21 08:19:23;;;;;;;10.27;1.75;;;20.80;99.90;;;;;;5059185;28;20103;-70
2023/08/21 08:21:49;;;;;;;3.50;1.63;;;20.80;99.90;;;;;;5077414;28;20154;-71
2023/08/21 08:24:14;;;;;;;4.40;1.40;;;20.90;99.90;;;;;;5077872;28;20073;-71
2023/08/21 08:26:42;;;;;;;6.80;1.40;;;20.90;99.90;;;;;;5076084;28;20044;-71
2023/08/21 08:29:08;;;;;;;6.57;1.40;;;20.90;99.90;;;;;;5078461;28;20044;-71
2023/08/21 08:31:34;;;;;;;3.75;1.90;;;21.00;99.90;;;;;;5075631;28;20496;-70
2023/08/21 08:34:00;;;;;;;4.90;1.52;;;21.10;99.90;;;;;;5078496;28;20075;-71
2023/08/21 08:36:26;;;;;;;4.00;1.40;;;21.20;99.90;;;;;;5075776;28;20048;-71
2023/08/21 08:38:51;;;;;;;4.85;1.65;;;21.30;99.90;;;;;;5077178;28;20109;-71
2023/08/21 08:41:49;;;;;;;6.07;1.50;;;21.30;99.90;;;;;;5076299;28;20049;-70
2023/08/21 08:44:17;;;;;;;3.50;1.33;;;21.40;99.90;;;;;;5067631;28;20057;-71
2023/08/21 08:46:43;;;;;;;2.78;1.38;;;21.40;99.90;;;;;;5078311;28;20045;-70
2023/08/21 08:49:09;;;;;;;4.90;1.55;;;21.50;99.90;;;;;;5075269;28;20084;-70
2023/08/21 08:51:37;;;;;;;5.07;1.13;;;21.50;99.90;;;;;;5077377;28;20067;-70
2023/08/21 08:54:03;;;;;;;6.45;1.45;;;21.60;99.90;;;;;;5076812;28;20044;-70
2023/08/21 08:56:29;;;;;;;3.63;1.27;;;21.70;99.90;;;;;;5076218;28;20044;-70
2023/08/21 08:58:55;;;;;;;9.50;2.35;;;21.70;99.90;;;;;;5059781;28;20040;-71
2023/08/21 09:01:21;;;;;;;6.68;1.55;;;21.70;99.90;;;;;;5075227;28;20055;-71
2023/08/21 09:03:49;;;;;;;5.13;1.80;;;21.80;99.90;;;;;;5078026;28;20064;-70
2023/08/21 09:06:15;;;;;;;6.70;2.00;;;21.80;99.90;;;;;;5074932;28;20052;-72
2023/08/21 09:08:54;;;;;;;3.90;1.60;;;21.80;99.90;;;;;;5077840;28;20072;-72
2023/08/21 09:11:20;;;;;;;8.90;2.22;;;22.10;99.90;;;;;;5077351;28;20838;-71
2023/08/21 09:13:48;;;;;;;6.32;1.90;;;22.00;99.90;;;;;;5075192;28;20085;-72
2023/08/21 09:16:16;;;;;;;6.97;2.10;;;22.10;99.90;;;;;;5076309;28;20259;-70
2023/08/21 09:18:49;;;;;;;2.85;1.35;;;22.10;99.90;;;;;;5074819;28;20056;-71
2023/08/21 09:21:23;;;;;;;6.35;1.88;;;22.10;99.90;;;;;;5075778;28;20048;-70
2023/08/21 09:24:00;;;;;;;4.45;2.15;;;22.10;99.90;;;;;;5074910;28;20040;-71
2023/08/21 09:26:26;;;;;;;5.57;1.73;;;22.00;99.90;;;;;;5076704;28;20074;-71
2023/08/21 09:28:52;;;;;;;6.43;1.38;;;22.00;99.90;;;;;;5059210;28;20048;-71
2023/08/21 09:31:33;;;;;;;4.25;1.40;;;22.00;99.90;;;;;;5074658;28;20063;-70
2023/08/21 09:34:06;;;;;;;5.05;1.60;;;22.00;99.90;;;;;;5077494;28;20048;-71
2023/08/21 09:36:35;;;;;;;2.92;1.15;;;22.10;99.90;;;;;;5042778;28;20036;-70
2023/08/21 09:39:03;;;;;;;3.47;1.13;;;22.30;99.90;;;;;;5075664;28;20182;-71
2023/08/21 09:41:28;;;;;;;3.25;1.40;;;22.40;99.90;;;;;;5077120;28;20104;-71
2023/08/21 09:44:03;;;;;;;3.53;1.30;;;22.30;99.90;;;;;;5057664;28;20092;-71
2023/08/21 09:46:29;;;;;;;6.72;1.17;;;22.50;99.90;;;;;;5059677;28;20045;-70
2023/08/21 09:48:55;;;;;;;4.88;1.20;;;22.40;99.90;;;;;;5075692;28;20083;-71
2023/08/21 09:51:21;;;;;;;5.25;1.75;;;22.50;99.90;;;;;;5075692;28;20037;-72
2023/08/21 09:53:49;;;;;;;5.18;1.10;;;22.60;99.90;;;;;;5074459;28;20104;-71
2023/08/21 09:56:16;;;;;;;9.25;1.25;;;22.60;99.90;;;;;;5075340;28;20048;-71
2023/08/21 09:58:43;;;;;;;1.23;0.60;;;22.70;99.90;;;;;;5075148;28;20059;-71
2023/08/21 10:01:14;;;;;;;2.45;0.70;;;22.80;99.90;;;;;;5075438;28;20040;-70
2023/08/21 10:03:41;;;;;;;2.83;1.02;;;22.90;99.90;;;;;;5075567;28;20078;-71
2023/08/21 10:06:09;;;;;;;2.60;0.90;;;22.80;99.90;;;;;;5073776;28;20053;-71
2023/08/21 10:08:40;;;;;;;3.13;0.88;;;22.80;99.90;;;;;;5077145;28;20096;-72
2023/08/21 10:11:09;;;;;;;4.90;1.02;;;22.80;99.90;;;;;;5074402;28;20064;-72
2023/08/21 10:13:37;;;;;;;4.68;1.27;;;22.90;99.90;;;;;;5075938;28;20067;-71
2023/08/21 10:16:05;;;;;;;4.28;1.42;;;23.00;99.90;;;;;;5076503;28;20087;-69
2023/08/21 10:18:35;;;;;;;5.53;1.27;;;23.10;99.90;;;;;;5040760;28;20131;-72
2023/08/21 10:21:14;;;;;;;4.03;1.30;;;23.10;99.90;;;;;;5075110;28;20048;-71
2023/08/21 10:23:41;;;;;;;5.90;1.52;;;23.10;99.90;;;;;;5073840;28;20048;-71
2023/08/21 10:26:08;;;;;;;7.43;1.83;;;23.20;99.90;;;;;;5057879;28;20053;-70
2023/08/21 10:28:50;;;;;;;6.85;1.48;;;23.20;99.90;;;;;;5074907;28;20110;-71
2023/08/21 10:31:26;;;;;;;4.20;1.40;;;23.20;99.90;;;;;;5076046;28;20064;-71
2023/08/21 10:33:52;;;;;;;4.40;1.25;;;23.20;99.90;;;;;;5079125;28;20090;-71
2023/08/21 10:36:40;;;;;;;3.15;1.40;;;23.20;99.90;;;;;;5077099;28;20495;-70
2023/08/21 10:39:17;;;;;;;3.03;1.25;;;23.30;99.90;;;;;;5080038;28;20070;-72
2023/08/21 10:42:04;;;;;;;4.05;1.08;;;23.20;99.90;;;;;;5078630;28;20048;-70
2023/08/21 10:44:59;;;;;;;3.35;0.95;;;23.20;99.90;;;;;;5047143;28;20056;-72
2023/08/21 10:47:27;;;;;;;7.05;1.33;;;23.30;99.90;;;;;;5080277;28;20044;-72
2023/08/21 10:49:54;;;;;;;2.25;1.00;;;23.40;99.90;;;;;;5079189;28;20652;-69
2023/08/21 10:52:26;;;;;;;9.35;1.35;;;23.50;99.90;;;;;;5077753;28;20044;-72
2023/08/21 10:54:54;;;;;;;7.57;1.23;;;23.50;99.90;;;;;;5078407;28;20048;-71
2023/08/21 10:57:20;;;;;;;4.85;1.40;;;23.70;99.90;;;;;;5078606;28;20623;-72
2023/08/21 10:59:53;;;;;;;2.28;0.98;;;23.60;99.90;;;;;;5078692;28;20054;-71
2023/08/21 11:02:19;;;;;;;5.97;1.27;;;23.70;99.90;;;;;;5077256;28;20044;-71
2023/08/21 11:04:45;;;;;;;3.08;0.98;;;23.70;99.90;;;;;;5079256;28;20068;-71
2023/08/21 11:07:12;;;;;;;1.55;0.77;;;23.70;99.90;;;;;;5078114;28;20526;-71
2023/08/21 11:09:38;;;;;;;3.45;1.08;;;23.60;99.90;;;;;;5076886;28;20582;-70
2023/08/21 11:12:09;;;;;;;4.32;1.33;;;23.70;99.90;;;;;;5078158;28;20044;-70
2023/08/21 11:14:35;;;;;;;2.37;1.03;;;23.70;99.90;;;;;;5078305;28;20135;-72
2023/08/21 11:17:01;;;;;;;3.22;0.90;;;23.70;99.90;;;;;;5079932;28;20040;-70
2023/08/21 11:19:29;;;;;;;2.00;0.95;;;23.70;99.90;;;;;;5076856;28;20068;-71
2023/08/21 11:21:55;;;;;;;3.65;1.02;;;23.80;99.90;;;;;;5077754;28;20472;-72
2023/08/21 11:24:21;;;;;;;3.05;1.02;;;23.70;99.90;;;;;;5077685;28;20142;-70
2023/08/21 11:26:47;;;;;;;3.17;0.80;;;23.90;99.90;;;;;;5077555;28;20044;-70
2023/08/21 11:29:13;;;;;;;3.40;1.02;;;24.00;99.90;;;;;;5079268;28;20032;-70
2023/08/21 11:31:39;;;;;;;3.90;1.40;;;24.10;99.90;;;;;;5077948;28;20063;-70
2023/08/21 11:34:05;;;;;;;1.75;0.90;;;24.10;99.90;;;;;;5078042;28;20102;-72
2023/08/21 11:36:30;;;;;;;5.57;1.20;;;24.00;99.90;;;;;;5076445;28;20044;-71
2023/08/21 11:39:04;;;;;;;4.32;1.13;;;24.00;99.90;;;;;;5079008;28;20056;-71
2023/08/21 11:41:30;;;;;;;4.72;1.27;;;24.00;99.90;;;;;;5079066;28;20056;-71
2023/08/21 11:44:03;;;;;;;3.72;1.00;;;24.00;99.90;;;;;;5075740;28;20056;-71
2023/08/21 11:46:29;;;;;;;4.25;1.40;;;24.10;99.90;;;;;;5077757;28;20611;-71
2023/08/21 11:48:55;;;;;;;8.52;1.33;;;24.20;99.90;;;;;;5077381;28;20041;-71
2023/08/21 11:51:20;;;;;;;3.22;1.50;;;24.30;99.90;;;;;;5061071;28;20048;-72
2023/08/21 11:53:48;;;;;;;6.15;1.30;;;24.30;99.90;;;;;;5077994;28;20044;-72
2023/08/21 11:56:16;;;;;;;5.50;1.70;;;24.30;99.90;;;;;;5078653;28;20056;-70
2023/08/21 11:58:48;;;;;;;6.43;1.15;;;24.30;99.90;;;;;;5060878;28;20127;-71
2023/08/21 12:01:21;;;;;;;2.67;1.02;;;24.20;99.90;;;;;;5077738;28;20044;-71
2023/08/21 12:03:54;;;;;;;6.28;1.40;;;24.30;99.90;;;;;;5078608;28;20068;-71
2023/08/21 12:06:20;;;;;;;3.80;1.13;;;24.40;99.90;;;;;;5077398;28;20056;-72
2023/08/21 12:08:45;;;;;;;3.85;1.10;;;24.40;99.90;;;;;;5078936;28;20052;-72
2023/08/21 12:11:11;;;;;;;4.70;1.27;;;24.50;99.90;;;;;;5076683;28;20052;-70
2023/08/21 12:13:37;;;;;;;3.20;1.10;;;24.50;99.90;;;;;;5076345;28;20185;-71
2023/08/21 12:16:03;;;;;;;2.45;1.00;;;24.60;99.90;;;;;;5077227;28;20041;-70
2023/08/21 12:18:29;;;;;;;3.53;1.02;;;24.60;99.90;;;;;;5059279;28;20048;-71
2023/08/21 12:20:55;;;;;;;8.93;1.02;;;24.60;99.90;;;;;;5078589;28;20051;-71
2023/08/21 12:23:21;;;;;;;5.47;1.40;;;24.60;99.90;;;;;;5075761;28;20052;-70
2023/08/21 12:25:47;;;;;;;3.92;1.20;;;24.60;99.90;;;;;;5078496;28;20139;-70
2023/08/21 12:28:12;;;;;;;3.00;0.93;;;24.60;99.90;;;;;;5077631;28;20120;-70
2023/08/21 12:30:38;;;;;;;3.72;1.10;;;24.70;99.90;;;;;;5077874;28;20096;-71
2023/08/21 12:33:07;;;;;;;3.25;0.95;;;24.70;99.90;;;;;;5076626;28;20074;-70
2023/08/21 12:35:33;;;;;;;3.00;1.20;;;24.70;99.90;;;;;;5075727;28;20064;-69
2023/08/21 12:38:05;;;;;;;5.75;1.17;;;24.70;99.90;;;;;;5076904;28;20044;-71
2023/08/21 12:40:31;;;;;;;5.97;1.13;;;24.70;99.90;;;;;;5076745;28;20048;-71
2023/08/21 12:42:57;;;;;;;2.33;0.80;;;24.70;99.90;;;;;;5077366;28;20056;-71
2023/08/21 12:45:23;;;;;;;2.08;0.85;;;24.70;99.90;;;;;;5077003;28;20129;-71
2023/08/21 12:47:48;;;;;;;2.15;0.82;;;24.90;99.90;;;;;;5059380;28;20037;-70